Time;durP1;ratioP1;P1;durP2;ratioP2;P2;SDS_P1;SDS_P2;PMS_P1;PMS_P2;Temp;Humidity;BMP_temperature;BMP_pressure;BME280_temperature;BME280_humidity;BME280_pressure;Samples;Min_cycle;Max_cycle;Signal;HPM_P1;HPM_P2
2022/10/10 00:01:44;;;;;;;2.47;1.15;;;15.70;58.60;;;;;;2327618;53;21003;-77
2022/10/10 00:04:36;;;;;;;3.15;1.45;;;15.70;58.40;;;;;;2440753;52;20970;-77
2022/10/10 00:07:03;;;;;;;2.05;1.00;;;15.70;58.40;;;;;;2347943;53;20975;-77
2022/10/10 00:09:29;;;;;;;3.85;1.40;;;15.70;58.40;;;;;;2346651;53;20987;-76
2022/10/10 00:11:56;;;;;;;3.30;1.52;;;15.70;58.40;;;;;;2557160;52;20985;-76
2022/10/10 00:14:22;;;;;;;2.67;1.33;;;15.70;58.50;;;;;;2342298;53;20944;-77
2022/10/10 00:16:48;;;;;;;2.87;1.40;;;15.70;58.60;;;;;;2425113;52;21671;-77
2022/10/10 00:19:14;;;;;;;3.12;1.30;;;15.70;58.60;;;;;;2372225;53;20917;-77
2022/10/10 00:21:58;;;;;;;3.30;1.37;;;15.70;58.60;;;;;;2350944;53;21021;-76
2022/10/10 00:24:25;;;;;;;2.72;0.93;;;15.70;58.90;;;;;;2590631;52;20984;-77
2022/10/10 00:26:51;;;;;;;3.70;1.30;;;15.70;58.70;;;;;;2377009;53;21067;-76
2022/10/10 00:29:17;;;;;;;2.65;1.00;;;15.70;58.70;;;;;;2586141;52;21044;-77
2022/10/10 00:31:46;;;;;;;2.37;1.00;;;15.80;58.80;;;;;;2505113;52;21600;-77
2022/10/10 00:34:32;;;;;;;3.05;1.00;;;15.70;58.70;;;;;;2347226;53;21007;-77
2022/10/10 00:36:58;;;;;;;1.87;0.85;;;15.70;58.70;;;;;;2346915;53;21839;-77
2022/10/10 00:39:25;;;;;;;3.78;1.10;;;15.70;58.60;;;;;;2354629;53;20984;-76
2022/10/10 00:41:52;;;;;;;2.90;1.02;;;15.70;58.70;;;;;;2346604;53;21004;-77
2022/10/10 00:44:37;;;;;;;3.00;1.20;;;15.70;58.60;;;;;;2337063;53;20948;-76
2022/10/10 00:47:07;;;;;;;2.58;1.20;;;15.70;58.60;;;;;;2350899;53;20975;-77
2022/10/10 00:49:33;;;;;;;2.40;1.05;;;15.70;58.60;;;;;;2509098;52;21015;-76
2022/10/10 00:51:59;;;;;;;2.42;1.30;;;15.70;58.60;;;;;;2372499;53;21035;-77
2022/10/10 00:54:28;;;;;;;3.37;1.40;;;15.70;58.70;;;;;;2357713;53;21102;-77
2022/10/10 00:57:10;;;;;;;2.50;1.10;;;15.70;58.80;;;;;;2351849;53;21016;-76
2022/10/10 00:59:37;;;;;;;3.78;1.02;;;15.70;58.80;;;;;;2488718;53;21079;-76
2022/10/10 01:02:04;;;;;;;2.17;1.15;;;15.70;58.80;;;;;;2552983;53;21103;-76
2022/10/10 01:04:39;;;;;;;2.72;1.10;;;15.70;58.80;;;;;;2346390;53;21003;-77
2022/10/10 01:07:29;;;;;;;2.37;0.93;;;15.70;58.70;;;;;;2356484;53;21421;-76
2022/10/10 01:10:01;;;;;;;2.37;1.10;;;15.70;58.80;;;;;;2348604;53;21108;-76
2022/10/10 01:17:33;;;;;;;;;;;15.70;58.70;;;;;;2373280;53;21106;-77
2022/10/10 01:22:46;;;;;;;2.67;0.90;;;15.70;58.70;;;;;;2589713;53;20071;-76
2022/10/10 01:25:36;;;;;;;2.72;0.90;;;15.70;58.60;;;;;;2345660;53;20983;-76
2022/10/10 01:29:51;;;;;;;3.87;1.08;;;15.70;58.70;;;;;;2349122;53;21289;-76
2022/10/10 01:33:16;;;;;;;2.60;0.83;;;15.50;58.70;;;;;;2341467;53;21059;-76
2022/10/10 01:36:22;;;;;;;1.75;0.80;;;15.60;58.70;;;;;;2461505;53;21918;-77
2022/10/10 01:38:58;;;;;;;1.80;0.77;;;15.50;58.70;;;;;;2344120;53;20919;-77
2022/10/10 01:41:28;;;;;;;2.42;1.00;;;15.50;58.70;;;;;;2506790;52;20969;-77
2022/10/10 01:43:55;;;;;;;2.72;1.08;;;15.50;58.70;;;;;;2353581;53;21531;-77
2022/10/10 01:46:22;;;;;;;1.87;1.05;;;15.50;58.80;;;;;;2507487;53;21051;-76
2022/10/10 01:48:49;;;;;;;1.98;0.90;;;15.50;58.90;;;;;;2344795;53;21016;-76
2022/10/10 01:53:56;;;;;;;3.92;1.30;;;15.50;58.90;;;;;;2342725;53;21797;-77
2022/10/10 01:56:41;;;;;;;5.15;1.20;;;15.50;58.90;;;;;;2348024;53;20980;-76
2022/10/10 01:59:46;;;;;;;2.70;0.80;;;15.50;59.10;;;;;;2488248;52;20949;-76
2022/10/10 02:02:23;;;;;;;;;;;15.50;59.10;;;;;;2492855;53;20952;-77
2022/10/10 02:05:17;;;;;;;3.03;0.90;;;15.50;59.00;;;;;;2414867;53;20047;-77
2022/10/10 02:07:56;;;;;;;2.42;0.95;;;15.50;59.50;;;;;;2347513;53;20975;-76
2022/10/10 02:10:25;;;;;;;2.58;1.20;;;15.50;58.90;;;;;;2345470;53;21679;-77
2022/10/10 02:12:52;;;;;;;2.10;0.90;;;15.40;58.80;;;;;;2419120;53;21791;-76
2022/10/10 02:15:22;;;;;;;1.95;0.82;;;15.40;58.90;;;;;;2586723;53;20940;-77
2022/10/10 02:17:49;;;;;;;2.75;1.12;;;15.40;58.90;;;;;;2354983;53;20978;-76
2022/10/10 02:20:17;;;;;;;2.33;1.08;;;15.30;58.90;;;;;;2347234;53;20971;-77
2022/10/10 02:22:43;;;;;;;2.53;0.95;;;15.40;59.10;;;;;;2341367;53;20991;-77
2022/10/10 02:25:11;;;;;;;3.62;1.10;;;15.30;59.00;;;;;;2327667;54;21118;-77
2022/10/10 02:29:23;;;;;;;4.78;1.10;;;15.30;58.90;;;;;;2579156;53;20951;-77
2022/10/10 02:36:55;;;;;;;2.00;0.90;;;15.30;59.10;;;;;;2353083;53;21815;-76
2022/10/10 02:39:24;;;;;;;2.25;0.90;;;15.30;58.90;;;;;;2380824;53;20956;-76
2022/10/10 02:41:50;;;;;;;2.12;0.93;;;15.30;58.90;;;;;;2584832;53;20948;-77
2022/10/10 02:44:16;;;;;;;3.10;0.90;;;15.30;59.00;;;;;;2343560;53;21020;-76
2022/10/10 02:46:42;;;;;;;2.75;1.00;;;15.30;59.10;;;;;;2345167;53;21068;-77
2022/10/10 02:49:09;;;;;;;2.90;1.10;;;15.30;59.10;;;;;;2343616;53;21332;-77
2022/10/10 02:51:36;;;;;;;2.00;0.90;;;15.20;59.10;;;;;;2474654;52;21413;-77
2022/10/10 02:54:03;;;;;;;1.75;0.75;;;15.20;59.10;;;;;;2344163;53;21547;-77
2022/10/10 02:56:29;;;;;;;1.90;0.85;;;15.20;59.20;;;;;;2527666;53;20925;-77
2022/10/10 02:58:56;;;;;;;2.35;1.10;;;15.20;59.20;;;;;;2346447;53;20879;-77
2022/10/10 03:01:22;;;;;;;1.92;1.00;;;15.20;59.30;;;;;;2350829;53;20941;-76
2022/10/10 03:03:52;;;;;;;2.72;0.90;;;15.20;59.40;;;;;;2397452;53;21006;-77
2022/10/10 03:06:18;;;;;;;1.90;0.95;;;15.30;59.50;;;;;;2343686;53;20948;-77
2022/10/10 03:08:45;;;;;;;3.03;1.27;;;15.30;59.50;;;;;;2590776;53;20957;-76
2022/10/10 03:11:11;;;;;;;2.85;1.10;;;15.30;59.50;;;;;;2560517;52;20932;-77
2022/10/10 03:13:37;;;;;;;2.72;1.48;;;15.30;59.50;;;;;;2380684;52;20908;-77
2022/10/10 03:16:05;;;;;;;2.92;1.40;;;15.30;59.50;;;;;;2470761;53;20988;-77
2022/10/10 03:18:32;;;;;;;2.60;1.30;;;15.30;59.60;;;;;;2589881;52;20928;-76
2022/10/10 03:20:59;;;;;;;4.32;1.15;;;15.30;59.70;;;;;;2590657;53;20936;-77
2022/10/10 03:23:25;;;;;;;5.35;1.45;;;15.30;59.70;;;;;;2398004;53;20936;-77
2022/10/10 03:25:52;;;;;;;2.83;1.10;;;15.40;59.80;;;;;;2590407;53;21350;-77
2022/10/10 03:28:20;;;;;;;3.47;1.40;;;15.40;59.80;;;;;;2343885;53;20996;-77
2022/10/10 03:30:49;;;;;;;3.03;1.10;;;15.40;59.80;;;;;;2340578;54;20972;-76
2022/10/10 03:33:17;;;;;;;3.53;1.10;;;15.40;59.80;;;;;;2346600;53;20920;-77
2022/10/10 03:35:43;;;;;;;3.67;1.77;;;15.40;59.80;;;;;;2343375;53;20992;-77
2022/10/10 03:38:11;;;;;;;3.87;1.37;;;15.50;59.90;;;;;;2347241;53;20951;-77
2022/10/10 03:40:41;;;;;;;2.37;1.10;;;15.40;59.90;;;;;;2343032;53;20924;-77
2022/10/10 03:43:09;;;;;;;3.45;1.45;;;15.50;60.00;;;;;;2343021;54;21004;-77
2022/10/10 03:45:36;;;;;;;2.17;1.12;;;15.50;60.00;;;;;;2376525;53;21004;-77
2022/10/10 03:48:04;;;;;;;2.40;1.20;;;15.50;60.10;;;;;;2590482;52;21071;-76
2022/10/10 03:50:31;;;;;;;3.08;1.27;;;15.50;60.10;;;;;;2343542;53;20989;-76
2022/10/10 03:52:57;;;;;;;4.85;1.50;;;15.60;60.20;;;;;;2590576;53;20952;-76
2022/10/10 03:55:23;;;;;;;2.62;1.55;;;15.60;60.30;;;;;;2589849;52;20992;-76
2022/10/10 03:57:50;;;;;;;3.22;1.67;;;15.60;60.40;;;;;;2346771;53;20995;-77
2022/10/10 04:00:20;;;;;;;5.68;1.62;;;15.60;60.40;;;;;;2338110;53;21084;-77
2022/10/10 04:02:47;;;;;;;2.87;1.20;;;15.70;60.50;;;;;;2343703;53;21381;-77
2022/10/10 04:05:14;;;;;;;4.00;1.30;;;15.70;60.50;;;;;;2343763;54;21402;-76
2022/10/10 04:07:43;;;;;;;3.42;1.80;;;15.70;60.50;;;;;;2343507;54;21366;-76
2022/10/10 04:10:09;;;;;;;2.75;1.40;;;15.70;60.60;;;;;;2552413;53;20948;-77
2022/10/10 04:12:35;;;;;;;3.20;1.20;;;15.70;60.70;;;;;;2419066;53;21773;-77
2022/10/10 04:15:02;;;;;;;2.30;1.15;;;15.80;60.80;;;;;;2344113;53;21036;-77
2022/10/10 04:17:29;;;;;;;2.95;1.20;;;15.80;60.90;;;;;;2521744;53;21004;-77
2022/10/10 04:19:55;;;;;;;3.80;1.30;;;15.80;60.90;;;;;;2346482;53;21044;-77
2022/10/10 04:22:22;;;;;;;3.50;1.70;;;15.80;60.80;;;;;;2347879;53;21034;-76
2022/10/10 04:24:48;;;;;;;3.10;1.30;;;15.80;60.80;;;;;;2344457;53;20916;-77
2022/10/10 04:27:15;;;;;;;3.47;1.60;;;15.90;60.80;;;;;;2372616;53;21791;-77
2022/10/10 04:29:41;;;;;;;2.87;1.50;;;15.90;60.90;;;;;;2534701;52;21434;-77
2022/10/10 04:32:07;;;;;;;2.80;1.60;;;15.90;61.00;;;;;;2342638;53;20996;-76
2022/10/10 04:34:34;;;;;;;3.67;1.20;;;15.90;61.00;;;;;;2345472;53;20986;-77
2022/10/10 04:37:00;;;;;;;5.75;1.45;;;15.90;60.90;;;;;;2367295;52;20928;-77
2022/10/10 04:39:27;;;;;;;2.37;1.17;;;16.00;61.00;;;;;;2348622;53;20931;-77
2022/10/10 04:41:53;;;;;;;2.72;1.10;;;16.00;61.00;;;;;;2345724;53;20928;-77
2022/10/10 04:44:20;;;;;;;2.53;1.05;;;16.00;60.90;;;;;;2343763;53;20956;-77
2022/10/10 04:46:46;;;;;;;2.30;0.90;;;16.00;60.80;;;;;;2579673;53;21449;-77
2022/10/10 04:49:14;;;;;;;3.53;1.17;;;16.10;61.00;;;;;;2343889;53;21458;-76
2022/10/10 04:51:41;;;;;;;2.50;1.20;;;16.10;61.00;;;;;;2344328;54;20932;-77
2022/10/10 04:54:07;;;;;;;3.50;1.40;;;16.10;60.90;;;;;;2345155;54;21037;-77
2022/10/10 04:56:33;;;;;;;3.10;1.37;;;16.10;60.90;;;;;;2588731;53;20988;-77
2022/10/10 04:59:00;;;;;;;5.00;1.30;;;16.10;60.90;;;;;;2346390;53;20941;-77
2022/10/10 05:01:26;;;;;;;2.65;1.27;;;16.20;61.00;;;;;;2464576;53;20940;-77
2022/10/10 05:03:53;;;;;;;3.47;1.42;;;16.20;61.10;;;;;;2531689;52;21086;-77
2022/10/10 05:06:19;;;;;;;2.40;1.15;;;16.20;61.10;;;;;;2590746;52;21071;-77
2022/10/10 05:08:45;;;;;;;4.25;1.73;;;16.20;61.00;;;;;;2453917;52;21802;-76
2022/10/10 05:11:11;;;;;;;3.87;1.50;;;16.20;60.90;;;;;;2343952;53;21079;-77
2022/10/10 05:13:38;;;;;;;3.05;1.40;;;16.20;60.90;;;;;;2501548;53;21154;-77
2022/10/10 05:16:05;;;;;;;2.37;1.25;;;16.20;61.00;;;;;;2566559;52;20911;-76
2022/10/10 05:18:31;;;;;;;3.10;1.30;;;16.20;61.10;;;;;;2344779;53;20971;-77
2022/10/10 05:20:57;;;;;;;4.15;1.48;;;16.20;61.00;;;;;;2344140;54;21040;-77
2022/10/10 05:23:26;;;;;;;1.77;0.90;;;16.30;61.10;;;;;;2464324;53;21019;-77
2022/10/10 05:25:53;;;;;;;2.20;1.20;;;16.20;60.90;;;;;;2490923;53;20993;-77
2022/10/10 05:28:19;;;;;;;2.80;1.25;;;16.30;61.00;;;;;;2581074;53;21052;-76
2022/10/10 05:30:45;;;;;;;5.37;1.35;;;16.30;60.90;;;;;;2345298;53;20993;-77
2022/10/10 05:33:11;;;;;;;3.10;1.52;;;16.30;60.90;;;;;;2505577;53;21068;-77
2022/10/10 05:35:38;;;;;;;3.08;1.50;;;16.30;60.90;;;;;;2343017;53;21075;-77
2022/10/10 05:38:04;;;;;;;3.28;1.20;;;16.30;60.90;;;;;;2463115;53;20922;-76
2022/10/10 05:40:30;;;;;;;2.70;1.10;;;16.30;61.10;;;;;;2362857;53;20968;-77
2022/10/10 05:42:57;;;;;;;2.80;1.17;;;16.30;60.80;;;;;;2590772;53;20977;-77
2022/10/10 05:45:23;;;;;;;2.30;1.10;;;16.30;60.80;;;;;;2344234;54;21770;-77
2022/10/10 05:47:49;;;;;;;2.55;1.02;;;16.30;60.70;;;;;;2343582;54;20964;-77
2022/10/10 05:50:37;;;;;;;2.40;1.17;;;16.30;60.60;;;;;;2343834;54;20960;-77
2022/10/10 05:53:03;;;;;;;4.50;1.35;;;16.30;60.50;;;;;;2590509;53;21450;-77
2022/10/10 05:55:34;;;;;;;5.95;1.60;;;16.20;60.50;;;;;;2372961;53;20924;-77
2022/10/10 05:58:00;;;;;;;3.25;1.10;;;16.20;60.50;;;;;;2590673;53;20937;-77
2022/10/10 06:00:26;;;;;;;1.92;0.90;;;16.20;60.50;;;;;;2432927;53;21500;-77
2022/10/10 06:02:52;;;;;;;2.78;1.08;;;16.20;60.50;;;;;;2344087;53;20960;-77
2022/10/10 06:05:19;;;;;;;2.45;1.20;;;16.20;60.40;;;;;;2346600;53;21385;-77
2022/10/10 06:07:45;;;;;;;2.37;1.20;;;16.20;60.30;;;;;;2343963;53;20924;-77
2022/10/10 06:10:29;;;;;;;2.55;1.08;;;16.10;60.20;;;;;;2344232;54;21463;-76
2022/10/10 06:12:55;;;;;;;2.03;1.02;;;16.10;60.20;;;;;;2343919;54;21281;-76
2022/10/10 06:15:21;;;;;;;3.10;1.30;;;16.10;60.20;;;;;;2413807;53;20985;-77
2022/10/10 06:17:47;;;;;;;2.53;1.20;;;16.00;60.10;;;;;;2343817;53;21087;-76
2022/10/10 06:20:23;;;;;;;2.87;1.12;;;16.00;60.20;;;;;;2347151;53;22274;-77
2022/10/10 06:22:49;;;;;;;2.58;1.20;;;16.00;60.10;;;;;;2354314;53;20951;-76
2022/10/10 06:25:15;;;;;;;2.15;1.10;;;16.00;60.10;;;;;;2343888;53;20945;-77
2022/10/10 06:27:55;;;;;;;3.25;1.45;;;15.90;60.10;;;;;;2348007;53;21007;-77
2022/10/10 06:30:24;;;;;;;3.20;1.35;;;15.90;60.10;;;;;;2543206;52;21488;-77
2022/10/10 06:32:51;;;;;;;2.25;1.20;;;15.90;60.20;;;;;;2345163;53;20984;-77
2022/10/10 06:35:20;;;;;;;2.33;1.08;;;15.90;60.20;;;;;;2343802;54;20940;-77
2022/10/10 06:37:46;;;;;;;3.33;1.42;;;15.90;60.30;;;;;;2344204;54;20995;-76
2022/10/10 06:40:12;;;;;;;2.50;1.40;;;15.80;60.30;;;;;;2344294;53;21024;-77
2022/10/10 06:42:39;;;;;;;2.30;1.25;;;15.80;60.40;;;;;;2343813;54;20944;-77
2022/10/10 06:45:06;;;;;;;3.25;1.80;;;15.80;60.50;;;;;;2481395;53;20912;-77
2022/10/10 06:47:32;;;;;;;3.00;1.50;;;15.80;60.50;;;;;;2352976;53;22090;-76
2022/10/10 06:50:01;;;;;;;2.30;1.10;;;15.80;60.60;;;;;;2341000;54;20989;-76
2022/10/10 06:52:27;;;;;;;3.12;1.50;;;15.80;60.50;;;;;;2344274;54;21044;-76
2022/10/10 06:54:54;;;;;;;3.22;1.40;;;15.80;60.50;;;;;;2344745;53;21052;-77
2022/10/10 06:57:23;;;;;;;3.87;1.25;;;15.80;60.50;;;;;;2344035;53;20944;-77
2022/10/10 06:59:50;;;;;;;2.85;1.50;;;15.70;60.40;;;;;;2344003;54;21458;-77
2022/10/10 07:02:17;;;;;;;3.42;1.27;;;15.80;60.60;;;;;;2590145;53;20987;-77
2022/10/10 07:04:43;;;;;;;2.67;1.15;;;15.70;60.50;;;;;;2590386;53;21076;-77
2022/10/10 07:07:09;;;;;;;4.53;1.50;;;15.70;60.60;;;;;;2344166;53;20972;-77
2022/10/10 07:09:36;;;;;;;3.70;1.50;;;15.70;60.70;;;;;;2525962;53;21859;-77
2022/10/10 07:12:03;;;;;;;3.53;1.48;;;15.70;60.80;;;;;;2390074;53;21375;-76
2022/10/10 07:14:30;;;;;;;3.08;1.40;;;15.70;61.00;;;;;;2343311;53;21545;-77
2022/10/10 07:16:56;;;;;;;6.28;2.58;;;15.70;61.20;;;;;;2344058;53;20965;-76
2022/10/10 07:19:23;;;;;;;2.78;1.25;;;15.70;61.20;;;;;;2343721;54;21052;-77
2022/10/10 07:21:50;;;;;;;3.08;1.85;;;15.70;61.20;;;;;;2343918;54;21454;-77
2022/10/10 07:24:16;;;;;;;3.35;2.08;;;15.80;61.40;;;;;;2482460;52;21554;-77
2022/10/10 07:26:44;;;;;;;5.05;2.55;;;15.80;61.50;;;;;;2343861;53;20925;-77
2022/10/10 07:29:12;;;;;;;6.15;2.70;;;15.80;61.70;;;;;;2589756;52;20918;-77
2022/10/10 07:31:40;;;;;;;5.22;3.00;;;15.80;61.80;;;;;;2343431;53;21405;-77
2022/10/10 07:34:09;;;;;;;5.70;2.90;;;15.90;62.10;;;;;;2433012;53;20936;-77
2022/10/10 07:36:37;;;;;;;4.47;2.75;;;15.90;62.20;;;;;;2348295;53;21875;-77
2022/10/10 07:39:03;;;;;;;5.30;2.75;;;15.90;62.20;;;;;;2585142;52;20964;-77
2022/10/10 07:41:29;;;;;;;4.32;2.45;;;16.00;62.30;;;;;;2342748;53;20949;-77
2022/10/10 07:43:55;;;;;;;4.30;2.42;;;16.00;62.30;;;;;;2343631;53;21001;-77
2022/10/10 07:46:22;;;;;;;5.57;2.20;;;16.00;62.40;;;;;;2354457;53;20975;-77
2022/10/10 07:48:48;;;;;;;5.43;2.40;;;16.00;62.40;;;;;;2517903;52;21032;-77
2022/10/10 07:51:14;;;;;;;3.17;2.00;;;16.10;62.50;;;;;;2345065;53;20944;-77
2022/10/10 07:53:42;;;;;;;4.55;2.40;;;16.10;62.50;;;;;;2452674;53;20931;-77
2022/10/10 07:56:09;;;;;;;4.62;1.95;;;16.20;62.70;;;;;;2459665;52;20940;-77
2022/10/10 07:58:35;;;;;;;4.18;2.00;;;16.30;62.90;;;;;;2343700;53;21028;-77
2022/10/10 08:01:07;;;;;;;4.07;2.20;;;16.30;62.90;;;;;;2352310;53;21010;-77
2022/10/10 08:03:34;;;;;;;4.80;2.20;;;16.40;63.10;;;;;;2342097;53;20957;-77
2022/10/10 08:06:04;;;;;;;4.62;1.90;;;16.40;63.10;;;;;;2590653;53;20963;-77
2022/10/10 08:08:31;;;;;;;3.80;1.60;;;16.50;63.30;;;;;;2590467;53;21032;-77
2022/10/10 08:10:58;;;;;;;2.75;1.75;;;16.60;63.30;;;;;;2344995;53;21051;-77
2022/10/10 08:13:25;;;;;;;4.32;2.20;;;16.60;63.20;;;;;;2579046;53;20956;-77
2022/10/10 08:15:52;;;;;;;3.92;2.00;;;16.70;63.40;;;;;;2340113;54;21408;-77
2022/10/10 08:18:18;;;;;;;7.35;2.35;;;16.70;63.40;;;;;;2344103;54;21472;-78
2022/10/10 08:20:45;;;;;;;3.95;1.80;;;16.80;63.60;;;;;;2344352;53;21864;-77
2022/10/10 08:23:12;;;;;;;3.80;1.90;;;16.80;63.60;;;;;;2344689;53;21526;-78
2022/10/10 08:25:40;;;;;;;4.47;2.12;;;16.90;63.70;;;;;;2340512;54;20960;-78
2022/10/10 08:28:06;;;;;;;4.12;1.83;;;17.00;63.90;;;;;;2343908;54;21056;-78
2022/10/10 08:30:33;;;;;;;4.07;1.67;;;17.10;64.00;;;;;;2343678;54;20920;-78
2022/10/10 08:33:00;;;;;;;8.20;1.98;;;17.10;64.00;;;;;;2347135;53;21495;-78
2022/10/10 08:35:28;;;;;;;4.30;1.83;;;17.20;64.30;;;;;;2344046;54;21422;-77
2022/10/10 08:37:55;;;;;;;7.35;1.90;;;17.30;64.50;;;;;;2589724;53;20989;-78
2022/10/10 08:40:22;;;;;;;3.62;1.77;;;17.40;64.60;;;;;;2344615;53;21446;-77
2022/10/10 08:42:51;;;;;;;3.22;1.50;;;17.50;64.80;;;;;;2324703;54;21687;-78
2022/10/10 08:45:25;;;;;;;4.05;1.70;;;17.60;64.90;;;;;;2343764;53;21386;-78
2022/10/10 08:48:26;;;;;;;3.78;1.62;;;17.70;64.90;;;;;;2591070;53;21410;-78
2022/10/10 08:50:58;;;;;;;3.60;1.83;;;17.80;64.90;;;;;;2342838;53;20953;-78
2022/10/10 08:53:40;;;;;;;2.12;1.23;;;17.90;64.70;;;;;;2352200;53;21096;-78
2022/10/10 08:56:06;;;;;;;5.90;2.03;;;18.00;64.70;;;;;;2590905;52;21015;-78
2022/10/10 08:58:37;;;;;;;3.58;1.85;;;18.10;64.70;;;;;;2348223;53;21067;-78
2022/10/10 09:01:23;;;;;;;4.97;2.00;;;18.20;65.00;;;;;;2344222;53;21004;-78
2022/10/10 09:03:51;;;;;;;3.75;2.10;;;18.40;65.40;;;;;;2397341;53;20943;-79
2022/10/10 09:09:43;;;;;;;3.65;1.83;;;18.50;65.30;;;;;;2343217;53;21480;-77
2022/10/10 09:13:03;;;;;;;2.72;1.52;;;18.60;65.40;;;;;;2588824;53;20995;-78
2022/10/10 09:15:44;;;;;;;3.33;1.33;;;18.80;65.30;;;;;;2403838;53;20951;-78
2022/10/10 09:20:06;;;;;;;3.37;1.45;;;19.00;65.40;;;;;;2333499;53;21060;-78
2022/10/10 09:22:34;;;;;;;2.90;1.30;;;19.20;65.40;;;;;;2334340;54;21466;-79
2022/10/10 09:25:07;;;;;;;3.45;1.48;;;19.30;65.30;;;;;;2334253;54;21003;-77
2022/10/10 09:27:36;;;;;;;3.90;1.42;;;19.40;65.50;;;;;;2337511;53;20939;-78
2022/10/10 09:30:04;;;;;;;3.40;1.52;;;19.50;65.60;;;;;;2334224;53;21063;-78
2022/10/10 09:32:40;;;;;;;3.65;1.65;;;19.60;65.50;;;;;;2529962;53;21052;-78
2022/10/10 09:35:40;;;;;;;3.75;1.87;;;19.70;65.60;;;;;;2333998;54;20999;-79
2022/10/10 09:40:45;;;;;;;2.95;1.40;;;19.90;65.60;;;;;;2368361;53;20975;-78
2022/10/10 09:43:19;;;;;;;2.90;1.23;;;20.20;65.70;;;;;;2333754;54;21852;-78
2022/10/10 09:45:51;;;;;;;3.33;1.42;;;20.30;65.40;;;;;;2333621;54;20944;-78
2022/10/10 09:48:17;;;;;;;;;;;20.40;65.40;;;;;;2506664;53;20964;-78
2022/10/10 09:50:53;;;;;;;3.67;1.15;;;20.50;66.00;;;;;;2333818;54;20073;-78
2022/10/10 09:53:21;;;;;;;3.28;1.25;;;20.70;66.10;;;;;;2520411;53;21019;-78
2022/10/10 09:55:47;;;;;;;3.35;1.20;;;20.80;65.40;;;;;;2334430;53;21474;-78
2022/10/10 09:58:59;;;;;;;4.10;1.30;;;20.90;66.20;;;;;;2344210;53;21078;-78
2022/10/10 10:01:27;;;;;;;2.78;1.23;;;21.00;65.10;;;;;;2331706;53;20963;-77
2022/10/10 10:04:16;;;;;;;2.17;0.98;;;21.10;65.20;;;;;;2399898;53;21019;-77
2022/10/10 10:06:49;;;;;;;4.28;1.10;;;21.30;64.80;;;;;;2469912;53;21518;-78
2022/10/10 10:09:17;;;;;;;5.50;1.00;;;21.40;64.90;;;;;;2367715;53;20972;-78
2022/10/10 10:11:43;;;;;;;2.10;0.90;;;21.50;64.60;;;;;;2333673;53;21012;-78
2022/10/10 10:14:27;;;;;;;2.58;0.93;;;21.60;64.50;;;;;;2334000;54;21383;-79
2022/10/10 10:16:54;;;;;;;3.83;1.25;;;21.60;64.10;;;;;;2454782;53;21063;-78
2022/10/10 10:19:31;;;;;;;3.58;1.20;;;21.80;64.30;;;;;;2340083;53;20944;-78
2022/10/10 10:22:22;;;;;;;8.88;1.25;;;21.90;63.80;;;;;;2448329;53;21067;-78
2022/10/10 10:24:55;;;;;;;2.67;0.85;;;22.00;63.60;;;;;;2516869;53;20986;-78
2022/10/10 10:27:24;;;;;;;2.87;1.20;;;22.10;63.90;;;;;;2333788;54;20925;-78
2022/10/10 10:29:53;;;;;;;3.20;1.00;;;22.20;63.80;;;;;;2416748;53;20940;-78
2022/10/10 10:32:49;;;;;;;3.15;1.05;;;22.20;63.50;;;;;;2348572;53;21915;-78
2022/10/10 10:35:31;;;;;;;3.25;1.02;;;22.40;63.10;;;;;;2336246;53;21060;-78
2022/10/10 10:38:40;;;;;;;2.83;1.00;;;22.50;63.10;;;;;;2338534;53;20942;-78
2022/10/10 10:44:11;;;;;;;2.90;1.05;;;22.60;62.70;;;;;;2579573;53;21010;-78
2022/10/10 10:48:44;;;;;;;3.30;1.05;;;22.70;62.60;;;;;;2336574;53;21085;-78
2022/10/10 10:51:18;;;;;;;;;;;22.90;62.40;;;;;;2341058;53;21032;-78
2022/10/10 10:55:16;;;;;;;2.83;0.98;;;23.00;62.50;;;;;;2334744;54;20062;-78
2022/10/10 11:01:15;;;;;;;2.05;0.82;;;23.10;62.20;;;;;;2497141;53;21969;-77
2022/10/10 11:03:58;;;;;;;2.62;0.80;;;23.20;62.20;;;;;;2334722;53;20928;-78
2022/10/10 11:06:27;;;;;;;;;;;23.30;62.20;;;;;;2371881;53;20943;-78
2022/10/10 11:09:12;;;;;;;1.65;0.73;;;23.30;62.00;;;;;;2333095;53;20336;-77
2022/10/10 11:13:39;;;;;;;4.18;1.12;;;23.40;61.80;;;;;;2315470;54;21075;-78
2022/10/10 11:16:22;;;;;;;3.10;1.08;;;23.50;60.90;;;;;;2333861;54;20953;-78
2022/10/10 11:20:57;;;;;;;4.00;0.98;;;23.50;60.90;;;;;;2334408;54;20987;-78
2022/10/10 11:23:30;;;;;;;2.20;0.90;;;23.70;60.90;;;;;;2333654;54;21024;-78
2022/10/10 11:26:09;;;;;;;3.20;1.20;;;23.70;61.30;;;;;;2334394;54;20964;-78
2022/10/10 11:29:05;;;;;;;3.17;1.10;;;23.70;61.20;;;;;;2350824;53;21264;-78
2022/10/10 11:31:35;;;;;;;3.67;1.02;;;23.80;60.50;;;;;;2334114;54;20956;-77
2022/10/10 11:34:05;;;;;;;4.18;1.20;;;23.80;61.00;;;;;;2338026;53;20967;-78
2022/10/10 11:36:36;;;;;;;4.65;1.10;;;23.90;60.90;;;;;;2506506;53;20944;-78
2022/10/10 11:39:32;;;;;;;2.97;1.20;;;23.90;60.80;;;;;;2335988;53;20989;-78
2022/10/10 11:43:31;;;;;;;3.10;1.20;;;24.00;60.10;;;;;;2517108;53;20964;-77
2022/10/10 11:46:13;;;;;;;3.95;1.20;;;24.10;60.10;;;;;;2333897;54;20932;-78
2022/10/10 11:49:02;;;;;;;4.07;1.12;;;24.10;59.90;;;;;;2333863;53;21315;-78
2022/10/10 11:51:42;;;;;;;2.83;1.10;;;24.20;59.50;;;;;;2333968;54;21375;-77
2022/10/10 11:54:28;;;;;;;3.00;1.10;;;24.20;59.50;;;;;;2334297;54;20953;-77
2022/10/10 11:56:57;;;;;;;3.17;1.12;;;24.30;59.40;;;;;;2333755;54;21012;-78
2022/10/10 11:59:36;;;;;;;3.50;1.12;;;24.30;59.80;;;;;;2577057;52;20963;-77
2022/10/10 12:02:13;;;;;;;3.33;1.33;;;24.40;59.70;;;;;;2333229;53;21028;-78
2022/10/10 12:04:40;;;;;;;3.80;1.17;;;24.40;59.60;;;;;;2337361;53;21940;-78
2022/10/10 12:07:40;;;;;;;4.37;1.40;;;24.40;59.70;;;;;;2559196;52;21004;-78
2022/10/10 12:11:49;;;;;;;3.80;1.20;;;24.50;59.40;;;;;;2338050;53;21009;-78
2022/10/10 12:14:16;;;;;;;2.25;0.82;;;24.60;59.30;;;;;;2342596;53;20968;-78
2022/10/10 12:16:43;;;;;;;2.90;1.10;;;24.70;59.60;;;;;;2333958;54;20980;-77
2022/10/10 12:19:20;;;;;;;2.62;0.93;;;24.70;59.50;;;;;;2334602;53;21035;-77
2022/10/10 12:22:10;;;;;;;5.87;1.40;;;24.80;58.90;;;;;;2334885;53;21035;-77
2022/10/10 12:25:03;;;;;;;2.70;1.15;;;24.80;58.80;;;;;;2334095;54;21008;-78
2022/10/10 12:27:45;;;;;;;4.22;0.98;;;24.80;59.20;;;;;;2333936;53;20936;-78
2022/10/10 12:30:20;;;;;;;5.40;2.10;;;24.80;58.50;;;;;;2336226;53;22013;-77
2022/10/10 12:32:49;;;;;;;4.43;1.27;;;24.90;58.70;;;;;;2345210;53;20960;-77
2022/10/10 12:38:37;;;;;;;3.05;1.15;;;24.90;58.90;;;;;;2500460;53;21071;-77
2022/10/10 12:41:14;;;;;;;3.08;0.98;;;25.00;58.40;;;;;;2334077;53;20968;-77
2022/10/10 12:43:50;;;;;;;2.70;1.00;;;25.10;58.20;;;;;;2348468;53;21950;-78
2022/10/10 12:46:24;;;;;;;7.75;1.10;;;25.10;58.50;;;;;;2334328;54;21083;-77
2022/10/10 12:48:59;;;;;;;3.65;1.17;;;25.20;58.10;;;;;;2390680;53;20948;-77
2022/10/10 12:51:25;;;;;;;3.45;1.17;;;25.20;58.00;;;;;;2333920;54;21972;-77
2022/10/10 12:53:53;;;;;;;3.83;1.10;;;25.20;58.30;;;;;;2334436;54;21921;-78
2022/10/10 12:57:37;;;;;;;4.55;1.05;;;25.30;58.10;;;;;;2334197;54;21953;-77
2022/10/10 13:00:26;;;;;;;2.92;1.10;;;25.40;57.30;;;;;;2523430;53;20962;-77
2022/10/10 13:02:58;;;;;;;4.70;1.17;;;25.40;57.50;;;;;;2333921;53;20980;-77
2022/10/10 13:05:33;;;;;;;5.78;1.30;;;25.40;57.90;;;;;;2387592;53;21043;-77
2022/10/10 13:08:02;;;;;;;6.53;1.30;;;25.50;57.40;;;;;;2334790;54;21633;-77
2022/10/10 13:10:33;;;;;;;5.85;1.10;;;25.50;57.80;;;;;;2310357;54;21016;-77
2022/10/10 13:13:32;;;;;;;2.85;1.25;;;25.50;57.70;;;;;;2450141;53;21001;-77
2022/10/10 13:16:40;;;;;;;3.35;1.25;;;25.60;56.80;;;;;;2336382;53;21036;-77
2022/10/10 13:19:18;;;;;;;4.40;1.37;;;25.70;56.70;;;;;;2334313;53;21417;-78
2022/10/10 13:21:44;;;;;;;4.10;1.30;;;25.70;57.00;;;;;;2356866;53;20976;-77
2022/10/10 13:24:15;;;;;;;3.40;1.00;;;25.70;57.20;;;;;;2332939;53;20967;-77
2022/10/10 13:26:45;;;;;;;3.30;1.35;;;25.70;57.00;;;;;;2333471;53;20951;-77
2022/10/10 13:29:38;;;;;;;3.65;1.17;;;25.80;57.00;;;;;;2333651;54;20957;-76
2022/10/10 13:32:10;;;;;;;2.97;1.00;;;25.80;56.50;;;;;;2333538;53;20940;-77
2022/10/10 13:34:41;;;;;;;2.83;1.17;;;25.90;56.80;;;;;;2334781;53;20940;-77
2022/10/10 13:37:12;;;;;;;4.03;1.20;;;25.90;56.80;;;;;;2578453;53;21000;-77
2022/10/10 13:39:40;;;;;;;4.47;1.30;;;25.90;56.70;;;;;;2365788;53;21020;-77
2022/10/10 13:42:37;;;;;;;4.57;1.30;;;26.00;56.90;;;;;;2383637;53;20917;-76
2022/10/10 13:51:59;;;;;;;13.95;2.50;;;26.00;55.90;;;;;;2334894;53;20958;-79
2022/10/10 13:54:43;;;;;;;6.37;2.40;;;26.10;56.30;;;;;;2295716;53;1376044;-75
2022/10/10 13:57:18;;;;;;;5.85;2.10;;;26.10;54.00;;;;;;2391840;53;22211;-77
2022/10/10 13:59:46;;;;;;;5.65;1.70;;;26.10;54.90;;;;;;2334800;53;20920;-76
2022/10/10 14:02:14;;;;;;;4.30;1.48;;;26.10;55.10;;;;;;2334144;53;20928;-78
2022/10/10 14:04:46;;;;;;;4.93;1.60;;;26.20;55.10;;;;;;2340575;53;22077;-77
2022/10/10 14:07:17;;;;;;;3.83;1.50;;;26.20;54.80;;;;;;2344336;53;20932;-77